Time,TemperatureF,DewpointF,PressureIn,WindDirection,WindDirectionDegrees,WindSpeedMPH,WindSpeedGustMPH,Humidity,HourlyPrecipIn,Conditions,Clouds,dailyrainin,SolarRadiationWatts/m^2,SoftwareType,DateUTC
2013-01-08 00:12:00,31.0,25.0,-100.00,South,173,8.0,11.0,77,0.00,,,0.00,0.000000,,2013-01-08 06:12:00,
2013-01-08 00:22:00,31.0,25.0,-100.00,South,173,8.0,11.0,77,0.00,,,0.00,0.000000,,2013-01-08 06:22:00,
2013-01-08 00:33:00,31.0,25.0,-100.00,South,173,8.0,11.0,77,0.00,,,0.00,0.000000,,2013-01-08 06:33:00,
2013-01-08 00:42:00,31.0,25.0,-100.00,South,173,8.0,11.0,77,0.00,,,0.00,0.000000,,2013-01-08 06:42:00,
2013-01-08 01:12:00,30.0,24.0,-100.00,South,173,8.0,10.0,77,0.00,,,0.00,0.000000,,2013-01-08 07:12:00,
2013-01-08 01:22:00,30.0,24.0,-100.00,South,173,8.0,10.0,77,0.00,,,0.00,0.000000,,2013-01-08 07:22:00,
2013-01-08 01:32:00,30.0,24.0,-100.00,South,173,8.0,10.0,77,0.00,,,0.00,0.000000,,2013-01-08 07:32:00,
2013-01-08 01:42:00,30.0,24.0,-100.00,South,173,8.0,10.0,77,0.00,,,0.00,0.000000,,2013-01-08 07:42:00,
2013-01-08 02:02:00,31.0,24.0,-100.00,South,175,8.0,11.0,76,0.00,,,0.00,0.000000,,2013-01-08 08:02:00,
2013-01-08 02:12:00,31.0,24.0,-100.00,South,175,8.0,11.0,76,0.00,,,0.00,0.000000,,2013-01-08 08:12:00,
2013-01-08 02:22:00,31.0,24.0,-100.00,South,175,8.0,11.0,76,0.00,,,0.00,0.000000,,2013-01-08 08:22:00,
2013-01-08 02:32:00,31.0,24.0,-100.00,South,175,8.0,11.0,76,0.00,,,0.00,0.000000,,2013-01-08 08:32:00,
2013-01-08 02:42:00,31.0,24.0,-100.00,South,175,8.0,11.0,76,0.00,,,0.00,0.000000,,2013-01-08 08:42:00,
2013-01-08 03:12:00,30.0,24.0,-100.00,South,181,9.0,11.0,78,0.00,,,0.00,0.000000,,2013-01-08 09:12:00,
2013-01-08 03:22:00,30.0,24.0,-100.00,South,181,9.0,11.0,78,0.00,,,0.00,0.000000,,2013-01-08 09:22:00,
2013-01-08 03:32:00,30.0,24.0,-100.00,South,181,9.0,11.0,78,0.00,,,0.00,0.000000,,2013-01-08 09:32:00,
2013-01-08 03:42:00,30.0,24.0,-100.00,South,181,9.0,11.0,78,0.00,,,0.00,0.000000,,2013-01-08 09:42:00,
2013-01-08 04:12:00,30.0,24.0,-100.00,South,177,7.0,9.0,78,0.00,,,0.00,0.000000,,2013-01-08 10:12:00,
2013-01-08 04:22:00,30.0,24.0,-100.00,South,177,7.0,9.0,78,0.00,,,0.00,0.000000,,2013-01-08 10:22:00,
2013-01-08 04:32:00,30.0,24.0,-100.00,South,177,7.0,9.0,78,0.00,,,0.00,0.000000,,2013-01-08 10:32:00,
2013-01-08 04:42:00,30.0,24.0,-100.00,South,177,7.0,9.0,78,0.00,,,0.00,0.000000,,2013-01-08 10:42:00,
2013-01-08 05:12:00,28.0,23.0,-100.00,South,174,7.0,9.0,81,0.00,,,0.00,0.000000,,2013-01-08 11:12:00,
2013-01-08 05:22:00,28.0,23.0,-100.00,South,174,7.0,9.0,81,0.00,,,0.00,0.000000,,2013-01-08 11:22:00,
2013-01-08 05:33:00,28.0,23.0,-100.00,South,174,7.0,9.0,81,0.00,,,0.00,0.000000,,2013-01-08 11:33:00,
2013-01-08 05:42:00,28.0,23.0,-100.00,South,174,7.0,9.0,81,0.00,,,0.00,0.000000,,2013-01-08 11:42:00,
2013-01-08 06:12:00,28.0,24.0,-100.00,SSE,150,7.0,7.0,84,0.00,,,0.00,0.000000,,2013-01-08 12:12:00,
2013-01-08 06:22:00,28.0,24.0,-100.00,SSE,150,7.0,7.0,84,0.00,,,0.00,0.000000,,2013-01-08 12:22:00,
2013-01-08 06:33:00,28.0,24.0,-100.00,SSE,150,7.0,7.0,84,0.00,,,0.00,0.000000,,2013-01-08 12:33:00,
2013-01-08 06:42:00,28.0,24.0,-100.00,SSE,150,7.0,7.0,84,0.00,,,0.00,0.000000,,2013-01-08 12:42:00,
2013-01-08 07:12:00,27.0,23.0,-100.00,SSE,148,7.0,9.0,86,0.00,,,0.00,0.000000,,2013-01-08 13:12:00,
2013-01-08 07:22:00,27.0,23.0,-100.00,SSE,148,7.0,9.0,86,0.00,,,0.00,0.000000,,2013-01-08 13:22:00,
2013-01-08 07:33:00,27.0,23.0,-100.00,SSE,148,7.0,9.0,86,0.00,,,0.00,0.000000,,2013-01-08 13:33:00,
2013-01-08 07:42:00,27.0,23.0,-100.00,SSE,148,7.0,9.0,86,0.00,,,0.00,0.000000,,2013-01-08 13:42:00,
2013-01-08 08:12:00,28.0,24.0,-100.00,SSE,149,8.0,10.0,86,0.00,,,0.00,1.000000,,2013-01-08 14:12:00,
2013-01-08 08:23:00,28.0,24.0,-100.00,SSE,149,8.0,10.0,86,0.00,,,0.00,1.000000,,2013-01-08 14:23:00,
2013-01-08 08:33:00,28.0,24.0,-100.00,SSE,149,8.0,10.0,86,0.00,,,0.00,1.000000,,2013-01-08 14:33:00,
2013-01-08 08:43:00,28.0,24.0,-100.00,SSE,149,8.0,10.0,86,0.00,,,0.00,1.000000,,2013-01-08 14:43:00,
2013-01-08 09:03:00,29.0,25.0,-100.00,SSE,152,10.0,11.0,86,0.00,,,0.00,39.000000,,2013-01-08 15:03:00,
2013-01-08 09:12:00,29.0,25.0,-100.00,SSE,152,10.0,11.0,86,0.00,,,0.00,39.000000,,2013-01-08 15:12:00,
2013-01-08 09:22:00,29.0,25.0,-100.00,SSE,152,10.0,11.0,86,0.00,,,0.00,39.000000,,2013-01-08 15:22:00,
2013-01-08 09:33:00,29.0,25.0,-100.00,SSE,152,10.0,11.0,86,0.00,,,0.00,39.000000,,2013-01-08 15:33:00,
2013-01-08 09:43:00,29.0,25.0,-100.00,SSE,152,10.0,11.0,86,0.00,,,0.00,39.000000,,2013-01-08 15:43:00,
2013-01-08 10:12:00,35.0,29.0,-100.00,South,174,9.0,12.0,78,0.00,,,0.00,186.000000,,2013-01-08 16:12:00,
2013-01-08 10:22:00,35.0,29.0,-100.00,South,174,9.0,12.0,78,0.00,,,0.00,186.000000,,2013-01-08 16:22:00,
2013-01-08 10:34:00,35.0,29.0,-100.00,South,174,9.0,12.0,78,0.00,,,0.00,186.000000,,2013-01-08 16:34:00,
2013-01-08 10:42:00,35.0,29.0,-100.00,South,174,9.0,12.0,78,0.00,,,0.00,186.000000,,2013-01-08 16:42:00,
2013-01-08 11:13:00,37.0,30.0,-100.00,South,174,9.0,14.0,75,0.00,,,0.00,245.000000,,2013-01-08 17:13:00,
2013-01-08 11:23:00,37.0,30.0,-100.00,South,174,9.0,14.0,75,0.00,,,0.00,245.000000,,2013-01-08 17:23:00,
2013-01-08 11:33:00,37.0,30.0,-100.00,South,174,9.0,14.0,75,0.00,,,0.00,245.000000,,2013-01-08 17:33:00,
2013-01-08 11:43:00,37.0,30.0,-100.00,South,174,9.0,14.0,75,0.00,,,0.00,245.000000,,2013-01-08 17:43:00,
2013-01-08 12:13:00,39.0,30.0,-100.00,South,181,15.0,19.0,71,0.00,,,0.00,372.000000,,2013-01-08 18:13:00,
2013-01-08 12:23:00,39.0,30.0,-100.00,South,181,15.0,19.0,71,0.00,,,0.00,372.000000,,2013-01-08 18:23:00,
2013-01-08 12:33:00,39.0,30.0,-100.00,South,181,15.0,19.0,71,0.00,,,0.00,372.000000,,2013-01-08 18:33:00,
2013-01-08 12:43:00,39.0,30.0,-100.00,South,181,15.0,19.0,71,0.00,,,0.00,372.000000,,2013-01-08 18:43:00,
2013-01-08 13:12:00,41.0,31.0,-100.00,South,188,12.0,19.0,67,0.00,,,0.00,516.000000,,2013-01-08 19:12:00,
2013-01-08 13:23:00,41.0,31.0,-100.00,South,188,12.0,19.0,67,0.00,,,0.00,516.000000,,2013-01-08 19:23:00,
2013-01-08 13:32:00,41.0,31.0,-100.00,South,188,12.0,19.0,67,0.00,,,0.00,516.000000,,2013-01-08 19:32:00,
2013-01-08 13:42:00,41.0,31.0,-100.00,South,188,12.0,19.0,67,0.00,,,0.00,516.000000,,2013-01-08 19:42:00,
2013-01-08 14:12:00,43.0,31.0,-100.00,South,170,13.0,18.0,62,0.00,,,0.00,510.000000,,2013-01-08 20:12:00,
2013-01-08 14:23:00,43.0,31.0,-100.00,South,170,13.0,18.0,62,0.00,,,0.00,510.000000,,2013-01-08 20:23:00,
2013-01-08 14:33:00,43.0,31.0,-100.00,South,170,13.0,18.0,62,0.00,,,0.00,510.000000,,2013-01-08 20:33:00,
2013-01-08 14:43:00,43.0,31.0,-100.00,South,170,13.0,18.0,62,0.00,,,0.00,510.000000,,2013-01-08 20:43:00,
2013-01-08 15:13:00,45.0,32.0,-100.00,South,186,11.0,18.0,59,0.00,,,0.00,408.000000,,2013-01-08 21:13:00,
2013-01-08 15:23:00,45.0,32.0,-100.00,South,186,11.0,18.0,59,0.00,,,0.00,408.000000,,2013-01-08 21:23:00,
2013-01-08 15:33:00,45.0,32.0,-100.00,South,186,11.0,18.0,59,0.00,,,0.00,408.000000,,2013-01-08 21:33:00,
2013-01-08 15:43:00,45.0,32.0,-100.00,South,186,11.0,18.0,59,0.00,,,0.00,408.000000,,2013-01-08 21:43:00,
2013-01-08 16:12:00,45.0,30.0,-100.00,South,186,15.0,21.0,56,0.00,,,0.00,295.000000,,2013-01-08 22:12:00,
2013-01-08 16:23:00,45.0,30.0,-100.00,South,186,15.0,21.0,56,0.00,,,0.00,295.000000,,2013-01-08 22:23:00,
2013-01-08 16:33:00,45.0,30.0,-100.00,South,186,15.0,21.0,56,0.00,,,0.00,295.000000,,2013-01-08 22:33:00,
2013-01-08 16:43:00,45.0,30.0,-100.00,South,186,15.0,21.0,56,0.00,,,0.00,295.000000,,2013-01-08 22:43:00,
2013-01-08 17:12:00,42.0,30.0,-100.00,South,191,11.0,19.0,63,0.00,,,0.00,113.000000,,2013-01-08 23:12:00,
2013-01-08 17:22:00,42.0,30.0,-100.00,South,191,11.0,19.0,63,0.00,,,0.00,113.000000,,2013-01-08 23:22:00,
2013-01-08 17:32:00,42.0,30.0,-100.00,South,191,11.0,19.0,63,0.00,,,0.00,113.000000,,2013-01-08 23:32:00,
2013-01-08 17:43:00,42.0,30.0,-100.00,South,191,11.0,19.0,63,0.00,,,0.00,113.000000,,2013-01-08 23:43:00,
2013-01-08 18:12:00,40.0,31.0,-100.00,South,189,10.0,17.0,70,0.00,,,0.00,5.000000,,2013-01-09 00:12:00,
2013-01-08 18:22:00,40.0,31.0,-100.00,South,189,10.0,17.0,70,0.00,,,0.00,5.000000,,2013-01-09 00:22:00,
2013-01-08 18:33:00,40.0,31.0,-100.00,South,189,10.0,17.0,70,0.00,,,0.00,5.000000,,2013-01-09 00:33:00,
2013-01-08 18:42:00,40.0,31.0,-100.00,South,189,10.0,17.0,70,0.00,,,0.00,5.000000,,2013-01-09 00:42:00,
2013-01-08 19:12:00,40.0,31.0,-100.00,South,189,12.0,15.0,70,0.00,,,0.00,0.000000,,2013-01-09 01:12:00,
2013-01-08 19:22:00,40.0,31.0,-100.00,South,189,12.0,15.0,70,0.00,,,0.00,0.000000,,2013-01-09 01:22:00,
2013-01-08 19:32:00,40.0,31.0,-100.00,South,189,12.0,15.0,70,0.00,,,0.00,0.000000,,2013-01-09 01:32:00,
2013-01-08 19:42:00,40.0,31.0,-100.00,South,189,12.0,15.0,70,0.00,,,0.00,0.000000,,2013-01-09 01:42:00,
2013-01-08 20:12:00,39.0,31.0,-100.00,SW,219,11.0,18.0,74,0.00,,,0.00,0.000000,,2013-01-09 02:12:00,
2013-01-08 20:22:00,39.0,31.0,-100.00,SW,219,11.0,18.0,74,0.00,,,0.00,0.000000,,2013-01-09 02:22:00,
2013-01-08 20:33:00,39.0,31.0,-100.00,SW,219,11.0,18.0,74,0.00,,,0.00,0.000000,,2013-01-09 02:33:00,
2013-01-08 20:42:00,39.0,31.0,-100.00,SW,219,11.0,18.0,74,0.00,,,0.00,0.000000,,2013-01-09 02:42:00,
2013-01-08 21:12:00,38.0,32.0,-100.00,WSW,239,12.0,16.0,78,0.00,,,0.00,0.000000,,2013-01-09 03:12:00,
2013-01-08 21:22:00,38.0,32.0,-100.00,WSW,239,12.0,16.0,78,0.00,,,0.00,0.000000,,2013-01-09 03:22:00,
2013-01-08 21:33:00,38.0,32.0,-100.00,WSW,239,12.0,16.0,78,0.00,,,0.00,0.000000,,2013-01-09 03:33:00,
2013-01-08 21:43:00,38.0,32.0,-100.00,WSW,239,12.0,16.0,78,0.00,,,0.00,0.000000,,2013-01-09 03:43:00,
2013-01-08 22:12:00,38.0,32.0,-100.00,West,259,15.0,21.0,78,0.00,,,0.00,0.000000,,2013-01-09 04:12:00,
2013-01-08 22:22:00,38.0,32.0,-100.00,West,259,15.0,21.0,78,0.00,,,0.00,0.000000,,2013-01-09 04:22:00,
2013-01-08 22:32:00,38.0,32.0,-100.00,West,259,15.0,21.0,78,0.00,,,0.00,0.000000,,2013-01-09 04:32:00,
2013-01-08 22:42:00,38.0,32.0,-100.00,West,259,15.0,21.0,78,0.00,,,0.00,0.000000,,2013-01-09 04:42:00,
2013-01-08 23:12:00,36.0,30.0,-100.00,WSW,252,14.0,19.0,79,0.00,,,0.00,0.000000,,2013-01-09 05:12:00,
2013-01-08 23:22:00,36.0,30.0,-100.00,WSW,252,14.0,19.0,79,0.00,,,0.00,0.000000,,2013-01-09 05:22:00,
2013-01-08 23:33:00,36.0,30.0,-100.00,WSW,252,14.0,19.0,79,0.00,,,0.00,0.000000,,2013-01-09 05:33:00,
2013-01-08 23:42:00,36.0,30.0,-100.00,WSW,252,14.0,19.0,79,0.00,,,0.00,0.000000,,2013-01-09 05:42:00,